Time;durP1;ratioP1;P1;durP2;ratioP2;P2;SDS_P1;SDS_P2;PMS_P1;PMS_P2;Temp;Humidity;BMP_temperature;BMP_pressure;BME280_temperature;BME280_humidity;BME280_pressure;Samples;Min_cycle;Max_cycle;Signal;HPM_P1;HPM_P2
2022/08/15 00:01:15;;;;;;;16.08;12.75;;;;;;;;;;4976163;28;20035;-75
2022/08/15 00:03:48;;;;;;;18.05;12.75;;;;;;;;;;4965525;28;20101;-75
2022/08/15 00:06:23;;;;;;;19.17;12.75;;;;;;;;;;4973262;28;20613;-74
2022/08/15 00:08:51;;;;;;;17.02;12.27;;;;;;;;;;4960018;28;20031;-75
2022/08/15 00:11:26;;;;;;;20.52;13.13;;;;;;;;;;4972678;28;20034;-75
2022/08/15 00:13:58;;;;;;;15.88;12.57;;;;;;;;;;4958759;28;20043;-75
2022/08/15 00:16:24;;;;;;;21.73;12.77;;;;;;;;;;4960032;28;20402;-75
2022/08/15 00:18:51;;;;;;;18.20;12.80;;;;;;;;;;4971855;28;20043;-75
2022/08/15 00:21:20;;;;;;;19.95;13.27;;;;;;;;;;4982206;28;20117;-74
2022/08/15 00:23:46;;;;;;;17.30;12.85;;;;;;;;;;4967465;28;20031;-75
2022/08/15 00:26:13;;;;;;;20.65;13.07;;;;;;;;;;4967577;28;20114;-74
2022/08/15 00:28:39;;;;;;;20.85;12.95;;;;;;;;;;4971850;28;20033;-75
2022/08/15 00:31:05;;;;;;;16.92;12.10;;;;;;;;;;4961209;28;20056;-75
2022/08/15 00:33:33;;;;;;;18.20;12.88;;;;;;;;;;4972328;28;20031;-75
2022/08/15 00:35:58;;;;;;;20.90;13.50;;;;;;;;;;4960497;28;20035;-75
2022/08/15 00:38:26;;;;;;;21.27;13.35;;;;;;;;;;4980843;28;20034;-75
2022/08/15 00:43:51;;;;;;;15.07;12.20;;;;;;;;;;4952516;28;20086;-75
2022/08/15 00:46:17;;;;;;;20.17;13.32;;;;;;;;;;4959321;28;20020;-74
2022/08/15 00:48:43;;;;;;;20.15;12.73;;;;;;;;;;4960562;28;20045;-74
2022/08/15 00:51:35;;;;;;;22.23;13.27;;;;;;;;;;4963286;28;20027;-74
2022/08/15 00:54:08;;;;;;;21.10;13.63;;;;;;;;;;4953535;28;20038;-75
2022/08/15 00:56:41;;;;;;;18.13;13.25;;;;;;;;;;4952411;28;20031;-74
2022/08/15 00:59:12;;;;;;;20.10;13.68;;;;;;;;;;4964469;28;20498;-75
2022/08/15 01:01:38;;;;;;;18.65;13.68;;;;;;;;;;4961894;28;20102;-74
2022/08/15 01:04:07;;;;;;;19.20;13.38;;;;;;;;;;4978364;28;20203;-75
2022/08/15 01:06:36;;;;;;;21.17;14.15;;;;;;;;;;4960603;28;20530;-75
2022/08/15 01:09:05;;;;;;;17.85;13.13;;;;;;;;;;4977652;28;20491;-76
2022/08/15 01:11:59;;;;;;;17.73;13.60;;;;;;;;;;4962523;28;20077;-75
2022/08/15 01:14:25;;;;;;;18.88;11.82;;;;;;;;;;4962358;28;20043;-75
2022/08/15 01:16:52;;;;;;;19.95;13.35;;;;;;;;;;4970445;28;20033;-76
2022/08/15 01:19:23;;;;;;;19.73;13.43;;;;;;;;;;4959629;28;20539;-76
2022/08/15 01:22:10;;;;;;;16.40;12.65;;;;;;;;;;4958946;28;20494;-75
2022/08/15 01:24:44;;;;;;;20.63;13.88;;;;;;;;;;4961676;28;20035;-74
2022/08/15 01:27:11;;;;;;;20.02;13.63;;;;;;;;;;4982054;28;20032;-73
2022/08/15 01:29:37;;;;;;;20.52;14.35;;;;;;;;;;4974865;28;20042;-76
2022/08/15 01:32:03;;;;;;;18.73;13.60;;;;;;;;;;4970512;28;20118;-73
2022/08/15 01:34:28;;;;;;;18.35;13.25;;;;;;;;;;4967167;28;20483;-74
2022/08/15 01:36:54;;;;;;;19.27;13.60;;;;;;;;;;4963876;28;20041;-74
2022/08/15 01:39:30;;;;;;;16.80;13.65;;;;;;;;;;4967185;28;20019;-75
2022/08/15 01:42:08;;;;;;;18.88;13.18;;;;;;;;;;4964544;28;20039;-75
2022/08/15 01:44:44;;;;;;;22.23;13.65;;;;;;;;;;4955354;28;20194;-75
2022/08/15 01:47:23;;;;;;;21.52;13.90;;;;;;;;;;4975059;28;20075;-75
2022/08/15 01:49:53;;;;;;;19.50;14.43;;;;;;;;;;4973408;28;20027;-74
2022/08/15 01:52:22;;;;;;;21.52;14.32;;;;;;;;;;4974063;28;20502;-74
2022/08/15 01:54:49;;;;;;;19.75;14.80;;;;;;;;;;4970078;28;20092;-74
2022/08/15 01:57:14;;;;;;;20.52;14.23;;;;;;;;;;4975124;28;20034;-75
2022/08/15 01:59:40;;;;;;;23.60;14.95;;;;;;;;;;4962711;28;20027;-75
2022/08/15 02:02:10;;;;;;;20.40;14.27;;;;;;;;;;4975186;28;20051;-74
2022/08/15 02:04:39;;;;;;;21.55;14.20;;;;;;;;;;4961765;28;20041;-75
2022/08/15 02:07:17;;;;;;;22.92;14.07;;;;;;;;;;4974274;28;20181;-75
2022/08/15 02:09:44;;;;;;;19.60;14.05;;;;;;;;;;4956942;28;20027;-74
2022/08/15 02:12:10;;;;;;;23.08;14.93;;;;;;;;;;4968242;28;20588;-75
2022/08/15 02:14:38;;;;;;;24.95;22.23;;;;;;;;;;4962471;28;20121;-75
2022/08/15 02:17:03;;;;;;;22.25;14.77;;;;;;;;;;4979069;28;20027;-75
2022/08/15 02:19:29;;;;;;;23.48;14.85;;;;;;;;;;4956572;28;20070;-75
2022/08/15 02:21:55;;;;;;;20.52;14.88;;;;;;;;;;4956672;28;20506;-74
2022/08/15 02:24:25;;;;;;;22.63;14.80;;;;;;;;;;4962235;28;20031;-74
2022/08/15 02:26:53;;;;;;;22.80;14.70;;;;;;;;;;4963879;28;20119;-74
2022/08/15 02:29:25;;;;;;;19.58;14.00;;;;;;;;;;4963698;28;20038;-75
2022/08/15 02:31:53;;;;;;;27.25;15.57;;;;;;;;;;4974675;28;20026;-74
2022/08/15 02:34:19;;;;;;;22.17;16.00;;;;;;;;;;4974371;28;20514;-74
2022/08/15 02:36:45;;;;;;;21.80;14.80;;;;;;;;;;4967797;28;20038;-74
2022/08/15 02:39:11;;;;;;;22.38;15.13;;;;;;;;;;4969348;28;20054;-75
2022/08/15 02:41:41;;;;;;;23.23;14.77;;;;;;;;;;4959024;28;20443;-75
2022/08/15 02:44:08;;;;;;;20.58;14.93;;;;;;;;;;4969376;28;20483;-75
2022/08/15 02:46:36;;;;;;;23.92;14.25;;;;;;;;;;4964144;28;20027;-75
2022/08/15 02:49:03;;;;;;;25.05;15.77;;;;;;;;;;4961827;28;20038;-75
2022/08/15 02:51:30;;;;;;;20.92;15.13;;;;;;;;;;4958662;28;20392;-74
2022/08/15 02:53:55;;;;;;;21.90;14.73;;;;;;;;;;4966749;28;20067;-74
2022/08/15 02:56:24;;;;;;;21.65;15.13;;;;;;;;;;4969225;28;20031;-73
2022/08/15 02:58:50;;;;;;;24.33;16.08;;;;;;;;;;4957229;28;20031;-74
2022/08/15 03:01:17;;;;;;;25.95;14.52;;;;;;;;;;4971005;28;20041;-74
2022/08/15 03:03:46;;;;;;;20.35;14.45;;;;;;;;;;4961020;28;20090;-75
2022/08/15 03:06:14;;;;;;;29.77;16.27;;;;;;;;;;4960676;28;20054;-74
2022/08/15 03:08:40;;;;;;;21.83;14.98;;;;;;;;;;4974438;28;20086;-74
2022/08/15 03:11:09;;;;;;;29.92;15.95;;;;;;;;;;4956653;28;20031;-74
2022/08/15 03:13:36;;;;;;;25.63;14.35;;;;;;;;;;4963511;28;20026;-75
2022/08/15 03:16:04;;;;;;;25.58;15.10;;;;;;;;;;4960959;28;20023;-75
2022/08/15 03:18:32;;;;;;;24.85;15.90;;;;;;;;;;4974043;28;20039;-75
2022/08/15 03:20:59;;;;;;;20.27;14.40;;;;;;;;;;4982607;28;20030;-75
2022/08/15 03:23:29;;;;;;;25.73;14.70;;;;;;;;;;4962851;28;20154;-75
2022/08/15 03:25:59;;;;;;;20.75;14.57;;;;;;;;;;4965281;28;20054;-74
2022/08/15 03:28:28;;;;;;;22.80;15.70;;;;;;;;;;4963517;28;20050;-74
2022/08/15 03:30:55;;;;;;;21.15;14.32;;;;;;;;;;4962296;28;20030;-75
2022/08/15 03:33:21;;;;;;;20.77;13.88;;;;;;;;;;4957964;28;20459;-74
2022/08/15 03:35:50;;;;;;;20.80;14.68;;;;;;;;;;4975721;28;20018;-74
2022/08/15 03:38:16;;;;;;;22.45;14.10;;;;;;;;;;4977511;28;20022;-75
2022/08/15 03:40:44;;;;;;;21.80;14.38;;;;;;;;;;4972144;28;20059;-74
2022/08/15 03:43:14;;;;;;;21.75;15.07;;;;;;;;;;4961132;28;20554;-75
2022/08/15 03:45:46;;;;;;;22.90;14.48;;;;;;;;;;4978108;28;20300;-74
2022/08/15 03:48:11;;;;;;;26.77;14.82;;;;;;;;;;4955583;28;20441;-74
2022/08/15 03:50:37;;;;;;;21.13;14.05;;;;;;;;;;4955582;28;20059;-74
2022/08/15 03:53:05;;;;;;;22.17;13.80;;;;;;;;;;4977190;28;20038;-75
2022/08/15 03:55:33;;;;;;;22.77;13.88;;;;;;;;;;4955937;28;20027;-74
2022/08/15 03:57:59;;;;;;;22.17;15.13;;;;;;;;;;4962599;28;20070;-74
2022/08/15 04:00:30;;;;;;;23.10;14.45;;;;;;;;;;4958017;28;20429;-75
2022/08/15 04:03:25;;;;;;;22.52;14.43;;;;;;;;;;4977039;28;20066;-74
2022/08/15 04:05:53;;;;;;;21.73;14.27;;;;;;;;;;4962257;28;20034;-75
2022/08/15 04:08:21;;;;;;;24.15;14.10;;;;;;;;;;4962781;28;20027;-75
2022/08/15 04:10:51;;;;;;;20.60;13.80;;;;;;;;;;4966259;28;20265;-76
2022/08/15 04:13:24;;;;;;;20.60;13.63;;;;;;;;;;4977609;28;20027;-75
2022/08/15 04:15:54;;;;;;;18.27;13.07;;;;;;;;;;4963855;28;20034;-76
2022/08/15 04:18:20;;;;;;;23.00;13.60;;;;;;;;;;4961409;28;20101;-74
2022/08/15 04:20:46;;;;;;;17.13;12.00;;;;;;;;;;4961604;28;20026;-75
2022/08/15 04:23:11;;;;;;;21.42;13.63;;;;;;;;;;4954266;28;20030;-75
2022/08/15 04:25:40;;;;;;;18.20;13.32;;;;;;;;;;4974474;28;20484;-75
2022/08/15 04:28:07;;;;;;;19.20;14.85;;;;;;;;;;4965505;28;20422;-75
2022/08/15 04:30:38;;;;;;;23.90;14.57;;;;;;;;;;4959339;28;20031;-75
2022/08/15 04:33:07;;;;;;;26.75;16.02;;;;;;;;;;4970231;28;20030;-75
2022/08/15 04:35:32;;;;;;;20.65;13.75;;;;;;;;;;4959710;28;20031;-76
2022/08/15 04:37:58;;;;;;;23.33;13.85;;;;;;;;;;4970564;28;20085;-75
2022/08/15 04:40:24;;;;;;;23.30;13.75;;;;;;;;;;4976363;28;20120;-75
2022/08/15 04:42:58;;;;;;;21.05;14.02;;;;;;;;;;4963596;28;20046;-75
2022/08/15 04:45:30;;;;;;;22.75;13.68;;;;;;;;;;4971594;28;20027;-75
2022/08/15 04:47:56;;;;;;;16.40;12.13;;;;;;;;;;4971300;28;20114;-75
2022/08/15 04:50:21;;;;;;;20.92;13.10;;;;;;;;;;4971448;28;20035;-75
2022/08/15 04:52:53;;;;;;;19.40;13.80;;;;;;;;;;4962421;28;20461;-76
2022/08/15 04:55:20;;;;;;;18.50;13.25;;;;;;;;;;4970934;28;20027;-76
2022/08/15 04:57:49;;;;;;;22.30;14.48;;;;;;;;;;4976969;28;20030;-76
2022/08/15 05:00:17;;;;;;;18.25;12.32;;;;;;;;;;4963370;28;20023;-75
2022/08/15 05:03:04;;;;;;;20.40;13.88;;;;;;;;;;4983592;28;20035;-75
2022/08/15 05:05:31;;;;;;;18.25;12.80;;;;;;;;;;4959055;28;20034;-76
2022/08/15 05:07:57;;;;;;;19.13;12.70;;;;;;;;;;4958055;28;20039;-76
2022/08/15 05:10:23;;;;;;;23.58;13.85;;;;;;;;;;4981674;28;20461;-76
2022/08/15 05:12:48;;;;;;;22.15;14.02;;;;;;;;;;4969959;28;20519;-76
2022/08/15 05:15:18;;;;;;;18.52;12.65;;;;;;;;;;4957027;28;20122;-74
2022/08/15 05:17:45;;;;;;;17.38;12.27;;;;;;;;;;4958847;28;20027;-76
2022/08/15 05:20:12;;;;;;;28.27;13.80;;;;;;;;;;4961253;28;20031;-77
2022/08/15 05:23:07;;;;;;;21.10;14.90;;;;;;;;;;4967701;28;20031;-77
2022/08/15 05:25:36;;;;;;;27.27;14.45;;;;;;;;;;4962820;28;20723;-75
2022/08/15 05:28:12;;;;;;;21.63;15.38;;;;;;;;;;4966354;28;20114;-76
2022/08/15 05:30:38;;;;;;;20.63;13.85;;;;;;;;;;4944702;28;20055;-74
2022/08/15 05:33:19;;;;;;;21.63;15.18;;;;;;;;;;4969389;28;20621;-73
2022/08/15 05:35:49;;;;;;;24.83;15.40;;;;;;;;;;4984415;28;20065;-75
2022/08/15 05:38:18;;;;;;;21.03;13.87;;;;;;;;;;4968916;28;20065;-76
2022/08/15 05:41:02;;;;;;;23.17;15.52;;;;;;;;;;4957065;28;20026;-76
2022/08/15 05:43:46;;;;;;;20.50;12.93;;;;;;;;;;4953401;28;20035;-76
2022/08/15 05:46:33;;;;;;;21.17;13.27;;;;;;;;;;4958284;28;20031;-75
2022/08/15 05:49:20;;;;;;;24.13;13.70;;;;;;;;;;4972870;28;20468;-74
2022/08/15 05:52:02;;;;;;;19.40;13.10;;;;;;;;;;4957553;28;20484;-75
2022/08/15 05:54:55;;;;;;;20.67;14.10;;;;;;;;;;4970651;28;20137;-75
2022/08/15 05:57:47;;;;;;;19.90;13.13;;;;;;;;;;4957027;28;20023;-77
2022/08/15 06:00:15;;;;;;;23.83;13.32;;;;;;;;;;4943953;28;20038;-76
2022/08/15 06:02:57;;;;;;;18.50;13.13;;;;;;;;;;4971577;28;20030;-76
2022/08/15 06:05:38;;;;;;;19.85;13.00;;;;;;;;;;4974437;28;20038;-77
2022/08/15 06:08:13;;;;;;;19.90;14.05;;;;;;;;;;4963692;28;20121;-76
2022/08/15 06:10:49;;;;;;;22.23;13.90;;;;;;;;;;4964175;28;20425;-77
2022/08/15 06:13:27;;;;;;;27.13;14.43;;;;;;;;;;4961592;28;20042;-76
2022/08/15 06:16:06;;;;;;;23.13;13.80;;;;;;;;;;4959485;28;20022;-75
2022/08/15 06:18:37;;;;;;;22.80;13.80;;;;;;;;;;4959447;28;20057;-77
2022/08/15 06:21:30;;;;;;;24.50;14.65;;;;;;;;;;4956642;28;20050;-75
2022/08/15 06:24:04;;;;;;;22.30;14.07;;;;;;;;;;4964094;28;20126;-76
2022/08/15 06:27:04;;;;;;;21.52;14.45;;;;;;;;;;4967025;28;20089;-76
2022/08/15 06:29:51;;;;;;;22.02;13.85;;;;;;;;;;4970292;28;20515;-76
2022/08/15 06:32:40;;;;;;;21.98;14.20;;;;;;;;;;4958488;28;20114;-75
2022/08/15 06:35:44;;;;;;;20.48;13.85;;;;;;;;;;4980510;28;20089;-74
2022/08/15 06:38:21;;;;;;;19.25;14.23;;;;;;;;;;4958883;28;20026;-75
2022/08/15 06:41:11;;;;;;;24.77;14.38;;;;;;;;;;4967402;28;20139;-76
2022/08/15 06:43:38;;;;;;;23.02;14.75;;;;;;;;;;4964466;28;20042;-77
2022/08/15 06:46:05;;;;;;;24.65;13.43;;;;;;;;;;4966008;28;20498;-75
2022/08/15 06:48:35;;;;;;;24.13;14.00;;;;;;;;;;4978383;28;20045;-73
2022/08/15 06:51:05;;;;;;;20.73;14.60;;;;;;;;;;4953555;28;20047;-76
2022/08/15 06:53:49;;;;;;;23.52;13.85;;;;;;;;;;4974585;28;20089;-77
2022/08/15 06:56:33;;;;;;;25.90;14.40;;;;;;;;;;4964561;28;20625;-76
2022/08/15 06:59:23;;;;;;;19.25;14.15;;;;;;;;;;4952844;28;20092;-75
2022/08/15 07:02:09;;;;;;;23.65;14.20;;;;;;;;;;4956444;28;20479;-75
2022/08/15 07:04:54;;;;;;;18.85;13.90;;;;;;;;;;4957766;28;20333;-73
2022/08/15 07:08:01;;;;;;;21.15;13.68;;;;;;;;;;4949895;28;20624;-73
2022/08/15 07:10:27;;;;;;;18.42;13.00;;;;;;;;;;4878751;29;20047;-74
2022/08/15 07:13:11;;;;;;;18.25;12.85;;;;;;;;;;4883342;29;20047;-77
2022/08/15 07:15:37;;;;;;;24.25;13.93;;;;;;;;;;4927066;28;20045;-77
2022/08/15 07:18:24;;;;;;;19.20;13.30;;;;;;;;;;4962525;28;20519;-77
2022/08/15 07:20:57;;;;;;;18.42;12.57;;;;;;;;;;4963382;28;20026;-77
2022/08/15 07:23:26;;;;;;;18.65;13.82;;;;;;;;;;4955553;28;20037;-75
2022/08/15 07:25:59;;;;;;;23.42;14.75;;;;;;;;;;4964586;28;20043;-77
2022/08/15 07:28:28;;;;;;;21.25;14.73;;;;;;;;;;4969421;28;20037;-75
2022/08/15 07:31:01;;;;;;;22.55;14.75;;;;;;;;;;4958410;28;20487;-78
2022/08/15 07:33:30;;;;;;;16.48;13.52;;;;;;;;;;4955662;28;20145;-73
2022/08/15 07:36:18;;;;;;;17.58;13.75;;;;;;;;;;4954971;28;20646;-74
2022/08/15 07:38:45;;;;;;;22.23;15.57;;;;;;;;;;4955339;28;20031;-74
2022/08/15 07:41:20;;;;;;;18.33;14.45;;;;;;;;;;4960662;28;20035;-76
2022/08/15 07:43:49;;;;;;;20.13;13.75;;;;;;;;;;4960970;28;20042;-74
2022/08/15 07:46:23;;;;;;;28.08;13.75;;;;;;;;;;4962105;28;20031;-76
2022/08/15 07:49:09;;;;;;;17.83;12.95;;;;;;;;;;4952213;28;20093;-76
2022/08/15 07:51:47;;;;;;;19.30;13.35;;;;;;;;;;4957417;28;20097;-74
2022/08/15 07:54:31;;;;;;;17.30;12.73;;;;;;;;;;4968468;28;20030;-73
2022/08/15 07:57:02;;;;;;;18.00;12.63;;;;;;;;;;4962346;28;20482;-72
2022/08/15 07:59:35;;;;;;;19.95;13.25;;;;;;;;;;4954156;28;20348;-73
2022/08/15 08:02:29;;;;;;;15.13;12.00;;;;;;;;;;4962867;28;20042;-71
2022/08/15 08:05:15;;;;;;;17.45;12.68;;;;;;;;;;4956926;28;20060;-72
2022/08/15 08:07:48;;;;;;;20.75;15.05;;;;;;;;;;4951131;28;20062;-73
2022/08/15 08:10:39;;;;;;;24.60;14.40;;;;;;;;;;4949378;28;20041;-73
2022/08/15 08:13:36;;;;;;;20.20;14.10;;;;;;;;;;4939036;28;20042;-74
2022/08/15 08:16:33;;;;;;;20.30;13.68;;;;;;;;;;4936793;28;20105;-73
2022/08/15 08:19:02;;;;;;;17.13;12.70;;;;;;;;;;4947712;28;20055;-73
2022/08/15 08:21:54;;;;;;;21.85;13.23;;;;;;;;;;4952847;28;20061;-73
2022/08/15 08:24:58;;;;;;;20.17;14.65;;;;;;;;;;4916904;28;20122;-73
2022/08/15 08:27:51;;;;;;;17.98;11.98;;;;;;;;;;4926727;28;20051;-73
2022/08/15 08:30:33;;;;;;;18.85;12.75;;;;;;;;;;4944146;28;20043;-74
2022/08/15 08:33:12;;;;;;;14.73;11.70;;;;;;;;;;4964909;28;20023;-72
2022/08/15 08:35:52;;;;;;;19.10;11.75;;;;;;;;;;4954571;28;20053;-74
2022/08/15 08:38:30;;;;;;;16.73;11.68;;;;;;;;;;4957712;28;20211;-74
2022/08/15 08:41:25;;;;;;;17.23;13.13;;;;;;;;;;4947199;28;20039;-73
2022/08/15 08:44:04;;;;;;;18.42;10.90;;;;;;;;;;4966794;28;20035;-73
2022/08/15 08:47:09;;;;;;;21.10;11.30;;;;;;;;;;4958216;28;20043;-76
2022/08/15 08:49:59;;;;;;;15.65;10.60;;;;;;;;;;4949586;28;20030;-75
2022/08/15 08:52:32;;;;;;;23.90;11.00;;;;;;;;;;4950969;28;21382;-76
2022/08/15 08:55:10;;;;;;;15.73;10.98;;;;;;;;;;4952625;28;20046;-77
2022/08/15 08:57:46;;;;;;;21.13;10.35;;;;;;;;;;4942830;28;20037;-75
2022/08/15 09:00:14;;;;;;;15.13;11.02;;;;;;;;;;4945994;28;20271;-75
2022/08/15 09:03:02;;;;;;;18.00;11.07;;;;;;;;;;4949455;28;20039;-76
2022/08/15 09:05:37;;;;;;;13.48;10.02;;;;;;;;;;4962899;28;20510;-76
2022/08/15 09:08:36;;;;;;;15.30;10.02;;;;;;;;;;4956495;28;20035;-76
2022/08/15 09:11:30;;;;;;;12.48;9.77;;;;;;;;;;4969454;28;20123;-78
2022/08/15 09:14:36;;;;;;;13.93;9.52;;;;;;;;;;4937072;28;20047;-75
2022/08/15 09:17:12;;;;;;;13.07;9.68;;;;;;;;;;4953024;28;20355;-78
2022/08/15 09:20:15;;;;;;;19.48;9.40;;;;;;;;;;4965874;28;20058;-76
2022/08/15 09:22:40;;;;;;;12.20;9.55;;;;;;;;;;4902161;29;20115;-76
2022/08/15 09:25:08;;;;;;;13.52;9.70;;;;;;;;;;4948311;28;20049;-76
2022/08/15 09:27:46;;;;;;;12.32;8.48;;;;;;;;;;4948760;28;20041;-77
2022/08/15 09:30:13;;;;;;;10.60;8.63;;;;;;;;;;4957912;28;20089;-77
2022/08/15 09:33:14;;;;;;;13.68;9.88;;;;;;;;;;4959970;28;20724;-76
2022/08/15 09:36:22;;;;;;;12.68;8.57;;;;;;;;;;4949458;28;20039;-77
2022/08/15 09:39:12;;;;;;;15.90;9.00;;;;;;;;;;4945471;28;20035;-78
2022/08/15 09:42:00;;;;;;;12.60;9.23;;;;;;;;;;4961367;28;20439;-76
2022/08/15 09:44:41;;;;;;;15.95;10.32;;;;;;;;;;4950716;28;20130;-75
2022/08/15 09:47:35;;;;;;;12.77;8.20;;;;;;;;;;4948372;28;20063;-76
2022/08/15 09:50:38;;;;;;;12.25;8.55;;;;;;;;;;4948787;28;20041;-76
2022/08/15 09:53:41;;;;;;;12.75;8.63;;;;;;;;;;4952882;28;20046;-77
2022/08/15 09:56:17;;;;;;;15.07;9.50;;;;;;;;;;4958618;28;20133;-77
2022/08/15 09:59:04;;;;;;;11.73;9.00;;;;;;;;;;4951132;28;20049;-76
2022/08/15 10:01:41;;;;;;;11.95;9.52;;;;;;;;;;4964379;28;20030;-79
2022/08/15 10:04:13;;;;;;;11.50;7.80;;;;;;;;;;4966087;28;20031;-76
2022/08/15 10:07:04;;;;;;;8.82;7.45;;;;;;;;;;4950894;28;20039;-76
2022/08/15 10:09:36;;;;;;;10.25;7.47;;;;;;;;;;4952326;28;20513;-77
2022/08/15 10:12:21;;;;;;;10.25;7.38;;;;;;;;;;4965525;28;20066;-77
2022/08/15 10:14:54;;;;;;;9.63;8.02;;;;;;;;;;4953460;28;20502;-76
2022/08/15 10:17:40;;;;;;;8.93;7.97;;;;;;;;;;4962133;28;20752;-77
2022/08/15 10:20:22;;;;;;;13.73;8.30;;;;;;;;;;4945940;28;20101;-76
2022/08/15 10:23:07;;;;;;;9.23;7.82;;;;;;;;;;4950263;28;20081;-77
2022/08/15 10:25:41;;;;;;;9.52;8.07;;;;;;;;;;4941697;28;20153;-77
2022/08/15 10:28:21;;;;;;;11.73;8.50;;;;;;;;;;4953827;28;20522;-79
2022/08/15 10:31:04;;;;;;;13.50;7.93;;;;;;;;;;4944881;28;20278;-77
2022/08/15 10:33:38;;;;;;;12.40;8.35;;;;;;;;;;4947034;28;20495;-78
2022/08/15 10:36:14;;;;;;;10.65;7.68;;;;;;;;;;4948841;28;20094;-78
2022/08/15 10:38:44;;;;;;;12.65;8.57;;;;;;;;;;4944832;28;20707;-77
2022/08/15 10:41:16;;;;;;;11.73;8.20;;;;;;;;;;4950381;28;20456;-78
2022/08/15 10:43:56;;;;;;;11.45;8.30;;;;;;;;;;4968413;28;20245;-76
2022/08/15 10:46:34;;;;;;;10.00;8.70;;;;;;;;;;4951110;28;20767;-77
2022/08/15 10:49:27;;;;;;;13.90;8.77;;;;;;;;;;4957729;28;20144;-78
2022/08/15 10:52:39;;;;;;;19.58;9.93;;;;;;;;;;4940946;28;20039;-77
2022/08/15 10:55:22;;;;;;;11.10;8.30;;;;;;;;;;4945655;28;20085;-78
2022/08/15 10:57:52;;;;;;;12.18;9.20;;;;;;;;;;4955352;28;21160;-78
2022/08/15 11:00:40;;;;;;;12.50;9.10;;;;;;;;;;4963005;28;20089;-78
2022/08/15 11:03:29;;;;;;;10.57;8.35;;;;;;;;;;4950149;28;20031;-76
2022/08/15 11:05:56;;;;;;;15.52;8.63;;;;;;;;;;4952849;28;20732;-77
2022/08/15 11:08:23;;;;;;;8.93;8.00;;;;;;;;;;4948246;28;20037;-77
2022/08/15 11:10:49;;;;;;;13.88;8.55;;;;;;;;;;4956891;28;20038;-77
2022/08/15 11:13:20;;;;;;;11.68;9.68;;;;;;;;;;4965120;28;20526;-77
2022/08/15 11:16:07;;;;;;;10.20;8.05;;;;;;;;;;4951307;28;20058;-78
2022/08/15 11:18:38;;;;;;;9.98;8.07;;;;;;;;;;4946863;28;20044;-77
2022/08/15 11:21:18;;;;;;;10.85;8.05;;;;;;;;;;4949060;28;20572;-76
2022/08/15 11:23:52;;;;;;;12.85;9.65;;;;;;;;;;4952224;28;20078;-77
2022/08/15 11:26:24;;;;;;;11.10;8.93;;;;;;;;;;4966237;28;20035;-74
2022/08/15 11:29:10;;;;;;;15.50;9.00;;;;;;;;;;4945978;28;20035;-75
2022/08/15 11:31:49;;;;;;;10.27;8.48;;;;;;;;;;4952128;28;20259;-75
2022/08/15 11:34:33;;;;;;;11.98;8.57;;;;;;;;;;4952924;28;20035;-76
2022/08/15 11:37:10;;;;;;;10.55;8.48;;;;;;;;;;4949455;28;20062;-79
2022/08/15 11:39:43;;;;;;;10.98;8.18;;;;;;;;;;4943728;28;20490;-75
2022/08/15 11:42:14;;;;;;;9.27;8.38;;;;;;;;;;4947438;28;20064;-76
2022/08/15 11:45:06;;;;;;;12.20;8.40;;;;;;;;;;4952546;28;20081;-75
2022/08/15 11:47:33;;;;;;;15.52;7.90;;;;;;;;;;4949079;28;20050;-77
2022/08/15 11:50:04;;;;;;;10.02;7.93;;;;;;;;;;4956147;28;20050;-77
2022/08/15 11:52:33;;;;;;;10.57;8.48;;;;;;;;;;4950734;28;20069;-76
2022/08/15 11:55:25;;;;;;;8.30;7.40;;;;;;;;;;4952314;28;20114;-75
2022/08/15 11:58:05;;;;;;;10.93;7.90;;;;;;;;;;4941100;28;20034;-77
2022/08/15 12:00:36;;;;;;;10.48;7.65;;;;;;;;;;4961790;28;20514;-76
2022/08/15 12:03:28;;;;;;;9.18;7.00;;;;;;;;;;4971930;28;20661;-76
2022/08/15 12:05:58;;;;;;;8.68;7.03;;;;;;;;;;4964340;28;20039;-76
2022/08/15 12:08:31;;;;;;;8.80;7.45;;;;;;;;;;4947050;28;20031;-76
2022/08/15 12:11:02;;;;;;;17.00;8.35;;;;;;;;;;4948212;28;20038;-77
2022/08/15 12:13:28;;;;;;;10.15;8.20;;;;;;;;;;4946459;28;20031;-76
2022/08/15 12:15:53;;;;;;;8.98;7.78;;;;;;;;;;4939587;28;20097;-73
2022/08/15 12:18:20;;;;;;;11.60;8.27;;;;;;;;;;4957119;28;20109;-76
2022/08/15 12:20:54;;;;;;;9.98;8.38;;;;;;;;;;4952492;28;20551;-74
2022/08/15 12:23:26;;;;;;;12.50;8.13;;;;;;;;;;4962364;28;20039;-75
2022/08/15 12:25:54;;;;;;;8.65;7.43;;;;;;;;;;4929152;28;20053;-76
2022/08/15 12:28:20;;;;;;;9.77;7.13;;;;;;;;;;4950150;28;20026;-74
2022/08/15 12:30:48;;;;;;;13.45;8.30;;;;;;;;;;4954425;28;20030;-77
2022/08/15 12:33:15;;;;;;;10.80;8.00;;;;;;;;;;4948387;28;20156;-75
2022/08/15 12:35:41;;;;;;;10.65;7.72;;;;;;;;;;4961445;28;20035;-75
2022/08/15 12:38:08;;;;;;;13.20;7.75;;;;;;;;;;4943319;28;20097;-78
2022/08/15 12:40:34;;;;;;;11.48;8.10;;;;;;;;;;4953892;28;20034;-77
2022/08/15 12:43:00;;;;;;;11.73;8.18;;;;;;;;;;4962917;28;20055;-75
2022/08/15 12:45:25;;;;;;;12.80;8.45;;;;;;;;;;4957724;28;20106;-77
2022/08/15 12:47:51;;;;;;;8.45;6.95;;;;;;;;;;4949068;28;20035;-75
2022/08/15 12:50:17;;;;;;;13.13;7.60;;;;;;;;;;4945881;28;20023;-79
2022/08/15 12:52:44;;;;;;;9.50;8.18;;;;;;;;;;4937355;28;20105;-78
2022/08/15 12:55:10;;;;;;;8.80;7.88;;;;;;;;;;4952680;28;20054;-79
2022/08/15 12:57:36;;;;;;;10.57;8.38;;;;;;;;;;4964384;28;20037;-79
2022/08/15 13:00:05;;;;;;;9.60;8.35;;;;;;;;;;4938132;28;20604;-76
2022/08/15 13:02:31;;;;;;;9.25;8.30;;;;;;;;;;4964635;28;20031;-78
2022/08/15 13:04:57;;;;;;;10.70;8.00;;;;;;;;;;4967781;28;20510;-78
2022/08/15 13:07:25;;;;;;;8.65;7.70;;;;;;;;;;4951680;28;20122;-76
2022/08/15 13:09:51;;;;;;;13.23;8.20;;;;;;;;;;4950510;28;20054;-78
2022/08/15 13:12:17;;;;;;;10.40;7.78;;;;;;;;;;4966162;28;20031;-75
2022/08/15 13:14:44;;;;;;;9.15;7.75;;;;;;;;;;4958002;28;20580;-77
2022/08/15 13:17:12;;;;;;;7.72;6.75;;;;;;;;;;4963148;28;20126;-77
2022/08/15 13:25:12;;;;;;;14.98;8.10;;;;;;;;;;4941128;28;20062;-77
2022/08/15 13:27:40;;;;;;;10.93;7.43;;;;;;;;;;4959071;28;20043;-74
2022/08/15 13:30:08;;;;;;;8.43;7.38;;;;;;;;;;4962547;28;20685;-78
2022/08/15 13:32:36;;;;;;;10.82;6.82;;;;;;;;;;4948711;28;20069;-76
2022/08/15 13:35:07;;;;;;;13.55;7.88;;;;;;;;;;4949343;28;20026;-77
2022/08/15 13:37:33;;;;;;;9.43;7.65;;;;;;;;;;4962992;28;20040;-78
2022/08/15 13:39:59;;;;;;;10.23;7.55;;;;;;;;;;4945862;28;20026;-76
2022/08/15 13:42:24;;;;;;;8.63;6.93;;;;;;;;;;4951782;28;20037;-77
2022/08/15 13:44:53;;;;;;;9.82;7.25;;;;;;;;;;4963127;28;20027;-75
2022/08/15 13:47:22;;;;;;;12.93;7.03;;;;;;;;;;4951580;28;20019;-75
2022/08/15 13:49:48;;;;;;;11.02;6.75;;;;;;;;;;4947274;28;20038;-75
2022/08/15 13:52:14;;;;;;;8.98;7.72;;;;;;;;;;4949859;28;20042;-75
2022/08/15 13:54:40;;;;;;;10.10;6.68;;;;;;;;;;4956311;28;20115;-76
2022/08/15 13:57:06;;;;;;;17.40;6.25;;;;;;;;;;4953613;28;20700;-75
2022/08/15 13:59:33;;;;;;;11.38;7.07;;;;;;;;;;4966947;28;20034;-76
2022/08/15 14:02:01;;;;;;;10.30;6.93;;;;;;;;;;4969559;28;20044;-75
2022/08/15 14:04:32;;;;;;;12.85;7.85;;;;;;;;;;4959201;28;20046;-75
2022/08/15 14:06:59;;;;;;;10.00;7.65;;;;;;;;;;4965658;28;20047;-74
2022/08/15 14:09:27;;;;;;;9.40;7.35;;;;;;;;;;4961036;28;20086;-72
2022/08/15 14:11:53;;;;;;;11.15;6.85;;;;;;;;;;4955436;28;20061;-74
2022/08/15 14:14:19;;;;;;;10.38;6.38;;;;;;;;;;4952044;28;20479;-75
2022/08/15 14:16:49;;;;;;;8.13;5.63;;;;;;;;;;4949010;28;20105;-75
2022/08/15 14:19:16;;;;;;;14.20;5.50;;;;;;;;;;4938133;28;20051;-71
2022/08/15 14:21:44;;;;;;;8.02;4.97;;;;;;;;;;4954472;28;20316;-74
2022/08/15 14:24:10;;;;;;;9.10;5.22;;;;;;;;;;4954791;28;20144;-73
2022/08/15 14:26:39;;;;;;;14.48;5.28;;;;;;;;;;4949760;28;20153;-74
2022/08/15 14:29:09;;;;;;;7.88;4.40;;;;;;;;;;4966003;28;20475;-75
2022/08/15 14:31:35;;;;;;;11.75;5.22;;;;;;;;;;4972818;28;20053;-74
2022/08/15 14:34:01;;;;;;;8.60;5.15;;;;;;;;;;4962749;28;20027;-77
2022/08/15 14:36:27;;;;;;;8.85;4.70;;;;;;;;;;4959960;28;20035;-77
2022/08/15 14:38:57;;;;;;;9.43;4.55;;;;;;;;;;4979771;28;20035;-76
2022/08/15 14:41:23;;;;;;;7.03;4.40;;;;;;;;;;4975443;28;20452;-77
2022/08/15 14:43:49;;;;;;;9.80;6.03;;;;;;;;;;4969226;28;20031;-77
2022/08/15 14:46:16;;;;;;;5.97;3.95;;;;;;;;;;4961911;28;20022;-76
2022/08/15 14:48:43;;;;;;;9.48;4.25;;;;;;;;;;4978975;28;20037;-77
2022/08/15 14:51:15;;;;;;;6.85;4.30;;;;;;;;;;4957117;28;20035;-76
2022/08/15 14:53:43;;;;;;;6.70;4.00;;;;;;;;;;4959861;28;20046;-76
2022/08/15 14:56:10;;;;;;;7.00;4.20;;;;;;;;;;4960633;28;20058;-77
2022/08/15 14:58:36;;;;;;;8.43;4.60;;;;;;;;;;4959295;28;20551;-78
2022/08/15 15:01:03;;;;;;;15.88;5.50;;;;;;;;;;4980694;28;20133;-79
2022/08/15 15:03:30;;;;;;;7.57;4.63;;;;;;;;;;4982656;28;20054;-78
2022/08/15 15:05:58;;;;;;;9.90;5.32;;;;;;;;;;4981581;28;20031;-75
2022/08/15 15:08:27;;;;;;;11.50;5.60;;;;;;;;;;4976246;28;20034;-77
2022/08/15 15:10:54;;;;;;;9.00;5.03;;;;;;;;;;4965531;28;20031;-77